createdAt,value
2017-06-23T00:00:55.122Z,24.76
2017-06-23T00:01:51.370Z,24.73
2017-06-23T00:02:47.598Z,24.72
2017-06-23T00:03:43.826Z,24.69
2017-06-23T00:04:40.067Z,24.68
2017-06-23T00:05:36.342Z,24.65
2017-06-23T00:06:32.575Z,24.63
2017-06-23T00:07:28.814Z,24.60
2017-06-23T00:08:25.050Z,24.59
2017-06-23T00:09:21.295Z,24.57
2017-06-23T00:10:17.523Z,24.53
2017-06-23T00:11:13.791Z,24.51
2017-06-23T00:12:10.035Z,24.49
2017-06-23T00:13:06.274Z,24.46
2017-06-23T00:14:02.503Z,24.44
2017-06-23T00:14:58.749Z,24.43
2017-06-23T00:15:54.986Z,24.40
2017-06-23T00:16:51.239Z,24.38
2017-06-23T00:17:47.466Z,24.35
2017-06-23T00:18:43.690Z,24.34
2017-06-23T00:19:39.934Z,24.32
2017-06-23T00:20:36.171Z,24.31
2017-06-23T00:21:32.422Z,24.28
2017-06-23T00:22:28.655Z,24.27
2017-06-23T00:23:24.891Z,24.26
2017-06-23T00:24:21.123Z,24.25
2017-06-23T00:25:17.362Z,24.22
2017-06-23T00:26:13.586Z,24.20
2017-06-23T00:27:09.843Z,24.18
2017-06-23T00:28:06.074Z,24.16
2017-06-23T00:29:02.299Z,24.14
2017-06-23T00:29:58.535Z,24.13
2017-06-23T00:30:54.770Z,24.10
2017-06-23T00:31:51.015Z,24.10
2017-06-23T00:32:47.242Z,24.08
2017-06-23T00:33:43.482Z,24.08
2017-06-23T00:34:39.722Z,24.05
2017-06-23T00:35:35.954Z,24.06
2017-06-23T00:36:32.182Z,24.04
2017-06-23T00:37:28.435Z,24.03
2017-06-23T00:38:24.671Z,24.01
2017-06-23T00:39:20.906Z,24.00
2017-06-23T00:40:17.139Z,24.01
2017-06-23T00:41:13.372Z,23.99
2017-06-23T00:42:09.606Z,23.97
2017-06-23T00:43:05.846Z,23.96
2017-06-23T00:44:02.075Z,23.95
2017-06-23T00:44:58.315Z,23.92
2017-06-23T00:45:54.554Z,23.91
2017-06-23T00:46:50.786Z,23.90
2017-06-23T00:47:47.022Z,23.87
2017-06-23T00:48:43.258Z,23.87
2017-06-23T00:49:39.495Z,23.85
2017-06-23T00:50:35.726Z,23.83
2017-06-23T00:51:31.962Z,23.81
2017-06-23T00:52:28.203Z,23.80
2017-06-23T00:53:24.447Z,23.79
2017-06-23T00:54:20.677Z,23.77
2017-06-23T00:55:16.913Z,23.77
2017-06-23T00:56:13.138Z,23.76
2017-06-23T00:57:09.384Z,23.73
2017-06-23T00:58:05.617Z,23.72
2017-06-23T00:59:01.874Z,23.70
2017-06-23T00:59:58.110Z,23.69
2017-06-23T01:04:18.498Z,23.63
2017-06-23T01:05:14.734Z,23.61
2017-06-23T01:06:10.974Z,23.60
2017-06-23T01:07:07.194Z,23.58
2017-06-23T01:08:03.428Z,23.58
2017-06-23T01:08:59.658Z,23.54
2017-06-23T01:09:55.909Z,23.53
2017-06-23T01:10:52.142Z,23.51
2017-06-23T01:11:48.377Z,23.50
2017-06-23T01:12:44.602Z,23.47
2017-06-23T01:13:40.845Z,23.45
2017-06-23T01:14:37.114Z,23.44
2017-06-23T01:15:33.354Z,23.42
2017-06-23T01:16:29.574Z,23.39
2017-06-23T01:17:25.814Z,23.39
2017-06-23T01:18:22.038Z,23.37
2017-06-23T01:19:18.273Z,23.35
2017-06-23T01:20:14.514Z,23.33
2017-06-23T01:21:10.746Z,23.32
2017-06-23T01:22:06.978Z,23.29
2017-06-23T01:23:03.208Z,23.28
2017-06-23T01:23:59.447Z,23.25
2017-06-23T01:24:55.722Z,23.23
2017-06-23T01:25:51.954Z,23.21
2017-06-23T01:26:48.190Z,23.19
2017-06-23T01:27:44.439Z,23.17
2017-06-23T01:28:40.667Z,23.14
2017-06-23T01:29:36.886Z,23.12
2017-06-23T01:30:33.142Z,23.09
2017-06-23T01:31:29.380Z,23.08
2017-06-23T01:32:25.614Z,23.06
2017-06-23T01:33:21.850Z,23.03
2017-06-23T01:34:18.070Z,23.02
2017-06-23T01:35:14.299Z,23.00
2017-06-23T01:36:10.550Z,22.99
2017-06-23T01:37:06.789Z,22.96
2017-06-23T01:38:03.022Z,22.95
2017-06-23T01:38:59.257Z,22.93
2017-06-23T01:39:55.482Z,22.92
2017-06-23T01:40:51.744Z,22.90
2017-06-23T01:41:47.985Z,22.88
2017-06-23T01:42:44.216Z,22.87
2017-06-23T01:43:40.462Z,22.86
2017-06-23T01:44:36.694Z,22.84
2017-06-23T01:45:32.922Z,22.82
2017-06-23T01:46:29.158Z,22.81
2017-06-23T01:47:25.390Z,22.80
2017-06-23T01:48:21.627Z,22.78
2017-06-23T01:49:17.859Z,22.77
2017-06-23T01:50:14.098Z,22.76
2017-06-23T01:51:10.342Z,22.74
2017-06-23T01:52:06.586Z,22.72
2017-06-23T01:53:02.810Z,22.70
2017-06-23T01:53:59.041Z,22.69
2017-06-23T01:54:55.266Z,22.68
2017-06-23T01:55:51.507Z,22.67
2017-06-23T01:56:47.757Z,22.66
2017-06-23T01:57:43.994Z,22.66
2017-06-23T01:58:40.221Z,22.64
2017-06-23T01:59:36.450Z,22.64
2017-06-23T02:00:32.685Z,22.62
2017-06-23T02:01:28.918Z,22.61
2017-06-23T02:02:25.158Z,22.60
2017-06-23T02:03:21.386Z,22.58
2017-06-23T02:04:17.622Z,22.57
2017-06-23T02:05:13.866Z,22.55
2017-06-23T02:06:10.096Z,22.53
2017-06-23T02:07:06.330Z,22.51
2017-06-23T02:08:02.587Z,22.50
2017-06-23T02:08:58.815Z,22.48
2017-06-23T02:09:55.055Z,22.46
2017-06-23T02:10:51.277Z,22.45
2017-06-23T02:11:47.506Z,22.44
2017-06-23T02:12:43.758Z,22.43
2017-06-23T02:13:39.998Z,22.43
2017-06-23T02:14:36.231Z,22.40
2017-06-23T02:15:32.469Z,22.40
2017-06-23T02:16:28.710Z,22.37
2017-06-23T02:17:24.953Z,22.37
2017-06-23T02:18:21.202Z,22.36
2017-06-23T02:19:17.430Z,22.34
2017-06-23T02:20:13.662Z,22.34
2017-06-23T02:21:09.898Z,22.32
2017-06-23T02:22:06.122Z,22.31
2017-06-23T02:23:02.358Z,22.30
2017-06-23T02:23:58.619Z,22.28
2017-06-23T02:24:54.858Z,22.27
2017-06-23T02:25:51.090Z,22.26
2017-06-23T02:26:47.310Z,22.26
2017-06-23T02:27:43.545Z,22.23
2017-06-23T02:28:39.766Z,22.21
2017-06-23T02:29:36.014Z,22.21
2017-06-23T02:30:32.250Z,22.18
2017-06-23T02:31:28.502Z,22.16
2017-06-23T02:32:24.710Z,22.15
2017-06-23T02:33:20.934Z,22.15
2017-06-23T02:34:17.163Z,22.14
2017-06-23T02:35:13.414Z,22.13
2017-06-23T02:36:09.646Z,22.13
2017-06-23T02:37:05.878Z,22.11
2017-06-23T02:38:02.102Z,22.09
2017-06-23T02:38:58.334Z,22.09
2017-06-23T02:39:54.570Z,22.07
2017-06-23T02:40:50.798Z,22.06
2017-06-23T02:41:47.022Z,22.04
2017-06-23T02:42:43.258Z,22.03
2017-06-23T02:43:39.486Z,22.03
2017-06-23T02:44:35.721Z,22.02
2017-06-23T02:45:31.967Z,22.02
2017-06-23T02:46:28.191Z,22.02
2017-06-23T02:47:24.426Z,22.01
2017-06-23T02:48:20.665Z,21.98
2017-06-23T02:49:16.886Z,21.98
2017-06-23T02:50:13.134Z,21.96
2017-06-23T02:51:09.354Z,21.95
2017-06-23T02:52:05.578Z,21.94
2017-06-23T02:53:01.819Z,21.93
2017-06-23T02:53:58.054Z,21.92
2017-06-23T02:54:54.273Z,21.91
2017-06-23T02:55:50.531Z,21.89
2017-06-23T02:56:46.761Z,21.87
2017-06-23T02:57:43.002Z,21.86
2017-06-23T02:58:39.246Z,21.85
2017-06-23T02:59:35.470Z,21.85
2017-06-23T03:00:31.700Z,21.84
2017-06-23T03:01:27.946Z,21.82
2017-06-23T03:02:24.193Z,21.81
2017-06-23T03:03:20.418Z,21.80
2017-06-23T03:04:16.643Z,21.80
2017-06-23T03:05:12.870Z,21.77
2017-06-23T03:06:09.098Z,21.78
2017-06-23T03:07:05.346Z,21.78
2017-06-23T03:08:01.571Z,21.76
2017-06-23T03:08:57.806Z,21.77
2017-06-23T03:09:54.040Z,21.75
2017-06-23T03:10:50.274Z,21.74
2017-06-23T03:11:46.518Z,21.72
2017-06-23T03:12:42.745Z,21.72
2017-06-23T03:13:38.982Z,21.71
2017-06-23T03:14:35.202Z,21.70
2017-06-23T03:15:31.425Z,21.69
2017-06-23T03:16:27.654Z,21.68
2017-06-23T03:17:23.894Z,21.67
2017-06-23T03:18:20.118Z,21.65
2017-06-23T03:19:16.343Z,21.64
2017-06-23T03:20:12.579Z,21.63
2017-06-23T03:21:08.806Z,21.61
2017-06-23T03:22:05.042Z,21.57
2017-06-23T03:23:01.316Z,21.55
2017-06-23T03:23:57.553Z,21.52
2017-06-23T03:24:53.778Z,21.51
2017-06-23T03:25:50.017Z,21.50
2017-06-23T03:26:46.250Z,21.48
2017-06-23T03:27:42.481Z,21.46
2017-06-23T03:28:38.723Z,21.44
2017-06-23T03:29:34.966Z,21.43
2017-06-23T03:30:31.186Z,21.41
2017-06-23T03:31:27.434Z,21.40
2017-06-23T03:32:23.658Z,21.39
2017-06-23T03:33:19.893Z,21.36
2017-06-23T03:34:16.151Z,21.35
2017-06-23T03:35:13.598Z,21.33
2017-06-23T03:36:09.826Z,21.31
2017-06-23T03:37:06.070Z,21.31
2017-06-23T03:38:02.317Z,21.29
2017-06-23T03:38:58.558Z,21.29
2017-06-23T03:39:54.790Z,21.28
2017-06-23T03:40:51.014Z,21.26
2017-06-23T03:41:47.251Z,21.27
2017-06-23T03:42:43.483Z,21.26
2017-06-23T03:43:39.721Z,21.26
2017-06-23T03:44:35.982Z,21.26
2017-06-23T03:45:32.210Z,21.25
2017-06-23T03:46:28.442Z,21.25
2017-06-23T03:47:24.666Z,21.25
2017-06-23T03:48:20.894Z,21.24
2017-06-23T03:49:17.134Z,21.26
2017-06-23T03:50:13.389Z,21.24
2017-06-23T03:51:09.626Z,21.24
2017-06-23T03:52:05.858Z,21.26
2017-06-23T03:53:02.089Z,21.25
2017-06-23T03:53:58.338Z,21.26
2017-06-23T03:54:54.586Z,21.26
2017-06-23T03:55:50.842Z,21.27
2017-06-23T03:56:47.082Z,21.25
2017-06-23T03:57:43.314Z,21.26
2017-06-23T03:58:39.552Z,21.26
2017-06-23T03:59:35.806Z,21.27
2017-06-23T04:00:32.051Z,21.27
2017-06-23T04:01:28.297Z,21.26
2017-06-23T04:02:24.530Z,21.27
2017-06-23T04:03:20.763Z,21.27
2017-06-23T04:04:16.989Z,21.28
2017-06-23T04:05:13.254Z,21.28
2017-06-23T04:06:09.500Z,21.27
2017-06-23T04:07:05.738Z,21.27
2017-06-23T04:08:01.990Z,21.27
2017-06-23T04:08:58.235Z,21.27
2017-06-23T04:09:54.482Z,21.28
2017-06-23T04:10:50.722Z,21.28
2017-06-23T04:11:46.965Z,21.30
2017-06-23T04:12:43.214Z,21.30
2017-06-23T04:13:39.429Z,21.31
2017-06-23T04:14:35.663Z,21.31
2017-06-23T04:15:31.893Z,21.33
2017-06-23T04:16:28.135Z,21.34
2017-06-23T04:17:24.406Z,21.35
2017-06-23T04:18:20.638Z,21.36
2017-06-23T04:19:16.915Z,21.37
2017-06-23T04:20:13.134Z,21.39
2017-06-23T04:21:09.374Z,21.39
2017-06-23T04:22:05.598Z,21.40
2017-06-23T04:23:01.867Z,21.41
2017-06-23T04:23:58.110Z,21.42
2017-06-23T04:24:54.345Z,21.44
2017-06-23T04:25:50.647Z,21.46
2017-06-23T04:26:46.934Z,21.45
2017-06-23T04:27:43.226Z,21.47
2017-06-23T04:28:39.729Z,21.48
2017-06-23T04:29:36.074Z,21.48
2017-06-23T04:30:32.370Z,21.49
2017-06-23T04:31:28.594Z,21.50
2017-06-23T04:32:24.831Z,21.51
2017-06-23T04:33:21.142Z,21.53
2017-06-23T04:34:17.380Z,21.53
2017-06-23T04:35:13.634Z,21.55
2017-06-23T04:36:09.866Z,21.55
2017-06-23T04:37:06.098Z,21.56
2017-06-23T04:38:02.322Z,21.56
2017-06-23T04:38:58.606Z,21.57
2017-06-23T04:39:54.910Z,21.57
2017-06-23T04:40:51.278Z,21.58
2017-06-23T04:41:47.520Z,21.60
2017-06-23T04:42:43.742Z,21.59
2017-06-23T04:43:39.970Z,21.59
2017-06-23T04:44:36.222Z,21.59
2017-06-23T04:45:32.470Z,21.60
2017-06-23T04:46:28.693Z,21.61
2017-06-23T04:47:24.914Z,21.60
2017-06-23T04:48:21.142Z,21.59
2017-06-23T04:49:17.438Z,21.60
2017-06-23T04:50:13.714Z,21.60
2017-06-23T04:51:09.954Z,21.60
2017-06-23T04:52:06.181Z,21.61
2017-06-23T04:53:02.410Z,21.60
2017-06-23T04:53:58.638Z,21.62
2017-06-23T04:54:54.885Z,21.61
2017-06-23T04:55:51.110Z,21.62
2017-06-23T04:56:47.334Z,21.63
2017-06-23T04:57:43.574Z,21.63
2017-06-23T04:58:39.802Z,21.64
2017-06-23T04:59:36.018Z,21.64
2017-06-23T05:00:32.258Z,21.63
2017-06-23T05:01:28.518Z,21.65
2017-06-23T05:02:24.776Z,21.65
2017-06-23T05:03:20.994Z,21.64
2017-06-23T05:04:17.214Z,21.64
2017-06-23T05:05:13.446Z,21.65
2017-06-23T05:06:09.686Z,21.65
2017-06-23T05:07:05.910Z,21.65
2017-06-23T05:08:02.147Z,21.67
2017-06-23T05:08:58.366Z,21.67
2017-06-23T05:09:54.598Z,21.67
2017-06-23T05:10:50.827Z,21.68
2017-06-23T05:11:47.079Z,21.83
2017-06-23T05:12:43.362Z,22.12
2017-06-23T05:13:39.590Z,22.40
2017-06-23T05:14:35.826Z,22.63
2017-06-23T05:15:32.065Z,22.81
2017-06-23T05:16:28.312Z,22.96
2017-06-23T05:17:24.562Z,23.04
2017-06-23T05:18:20.786Z,23.15
2017-06-23T05:19:17.017Z,23.24
2017-06-23T05:20:13.257Z,23.30
2017-06-23T05:21:09.487Z,23.37
2017-06-23T05:22:06.122Z,23.42
2017-06-23T05:23:02.354Z,23.48
2017-06-23T05:23:58.579Z,23.53
2017-06-23T05:24:54.815Z,23.58
2017-06-23T05:25:51.041Z,23.62
2017-06-23T05:26:47.258Z,23.65
2017-06-23T05:27:43.511Z,23.69
2017-06-23T05:28:39.747Z,23.72
2017-06-23T05:29:35.990Z,23.75
2017-06-23T05:30:32.222Z,23.79
2017-06-23T05:31:28.446Z,23.83
2017-06-23T05:32:24.690Z,23.86
2017-06-23T05:33:20.922Z,23.87
2017-06-23T05:34:17.162Z,23.88
2017-06-23T05:35:13.383Z,23.90
2017-06-23T05:36:09.627Z,23.92
2017-06-23T05:37:05.851Z,23.92
2017-06-23T05:38:02.114Z,23.94
2017-06-23T05:38:58.385Z,23.93
2017-06-23T05:39:54.612Z,23.94
2017-06-23T05:40:50.942Z,23.93
2017-06-23T05:41:47.175Z,23.92
2017-06-23T05:42:43.407Z,23.90
2017-06-23T05:43:39.664Z,23.90
2017-06-23T05:44:35.899Z,23.90
2017-06-23T05:45:32.134Z,23.90
2017-06-23T05:46:28.662Z,23.88
2017-06-23T05:47:24.903Z,23.88
2017-06-23T05:48:21.145Z,23.84
2017-06-23T05:49:17.394Z,23.84
2017-06-23T05:50:13.637Z,23.84
2017-06-23T05:51:09.875Z,23.82
2017-06-23T05:52:06.098Z,23.83
2017-06-23T05:53:02.369Z,23.83
2017-06-23T05:53:58.595Z,23.85
2017-06-23T05:54:54.850Z,23.86
2017-06-23T05:55:51.090Z,23.87
2017-06-23T05:56:47.317Z,23.88
2017-06-23T05:57:43.552Z,23.86
2017-06-23T05:58:39.788Z,23.87
2017-06-23T05:59:36.018Z,23.86
2017-06-23T06:00:32.298Z,23.87
2017-06-23T06:01:28.543Z,23.87
2017-06-23T06:02:24.778Z,23.87
2017-06-23T06:03:20.998Z,23.86
2017-06-23T06:04:17.314Z,23.86
2017-06-23T06:05:13.549Z,23.87
2017-06-23T06:06:09.774Z,23.87
2017-06-23T06:07:06.006Z,23.88
2017-06-23T06:08:02.246Z,23.88
2017-06-23T06:08:58.482Z,23.89
2017-06-23T06:09:54.714Z,23.91
2017-06-23T06:10:50.959Z,23.92
2017-06-23T06:11:47.193Z,23.94
2017-06-23T06:12:43.426Z,23.95
2017-06-23T06:13:39.671Z,23.96
2017-06-23T06:14:35.890Z,23.97
2017-06-23T06:15:32.118Z,23.97
2017-06-23T06:16:28.378Z,23.98
2017-06-23T06:17:24.611Z,24.00
2017-06-23T06:18:20.841Z,23.98
2017-06-23T06:19:17.062Z,24.00
2017-06-23T06:20:14.734Z,23.98
2017-06-23T06:21:11.158Z,24.00
2017-06-23T06:22:07.401Z,24.00
2017-06-23T06:23:03.639Z,24.00
2017-06-23T06:23:59.859Z,24.01
2017-06-23T06:24:56.086Z,24.01
2017-06-23T06:25:52.322Z,24.01
2017-06-23T06:26:48.610Z,24.00
2017-06-23T06:27:44.829Z,23.98
2017-06-23T06:28:41.069Z,23.98
2017-06-23T06:29:37.301Z,23.98
2017-06-23T06:30:33.539Z,23.97
2017-06-23T06:31:29.763Z,23.97
2017-06-23T06:32:26.014Z,23.97
2017-06-23T06:33:22.246Z,23.97
2017-06-23T06:34:18.483Z,23.98
2017-06-23T06:35:14.722Z,23.99
2017-06-23T06:36:10.956Z,24.00
2017-06-23T06:37:07.204Z,24.02
2017-06-23T06:38:03.431Z,24.05
2017-06-23T06:38:59.674Z,24.08
2017-06-23T06:39:55.915Z,24.09
2017-06-23T06:40:52.158Z,24.10
2017-06-23T06:41:48.398Z,24.11
2017-06-23T06:42:44.646Z,24.11
2017-06-23T06:43:40.890Z,24.13
2017-06-23T06:44:37.118Z,24.14
2017-06-23T06:45:33.345Z,24.16
2017-06-23T06:46:29.570Z,24.19
2017-06-23T06:47:25.804Z,24.18
2017-06-23T06:48:22.082Z,24.18
2017-06-23T06:49:18.318Z,24.17
2017-06-23T06:50:14.546Z,24.16
2017-06-23T06:51:10.783Z,24.13
2017-06-23T06:52:07.007Z,24.15
2017-06-23T06:53:03.246Z,24.15
2017-06-23T06:53:59.489Z,24.16
2017-06-23T06:54:55.710Z,24.18
2017-06-23T06:55:51.948Z,24.19
2017-06-23T06:56:48.172Z,24.22
2017-06-23T06:57:44.403Z,24.22
2017-06-23T06:58:40.650Z,24.22
2017-06-23T06:59:36.882Z,24.22
2017-06-23T07:00:33.122Z,24.23
2017-06-23T07:01:29.406Z,24.25
2017-06-23T07:02:25.650Z,24.26
2017-06-23T07:03:21.881Z,24.28
2017-06-23T07:04:18.131Z,24.28
2017-06-23T07:05:14.363Z,24.31
2017-06-23T07:06:10.594Z,24.32
2017-06-23T07:07:06.827Z,24.34
2017-06-23T07:08:03.068Z,24.34
2017-06-23T07:08:59.339Z,24.37
2017-06-23T07:09:55.573Z,24.38
2017-06-23T07:10:51.798Z,24.41
2017-06-23T07:11:48.038Z,24.42
2017-06-23T07:12:44.274Z,24.44
2017-06-23T07:13:40.500Z,24.44
2017-06-23T07:14:36.758Z,24.42
2017-06-23T07:15:32.987Z,24.42
2017-06-23T07:16:29.226Z,24.44
2017-06-23T07:17:25.466Z,24.47
2017-06-23T07:18:21.685Z,24.48
2017-06-23T07:19:17.930Z,24.47
2017-06-23T07:20:14.178Z,24.46
2017-06-23T07:21:10.419Z,24.45
2017-06-23T07:22:06.658Z,24.46
2017-06-23T07:23:02.896Z,24.45
2017-06-23T07:23:59.126Z,24.45
2017-06-23T07:24:55.366Z,24.45
2017-06-23T07:25:51.618Z,24.45
2017-06-23T07:26:47.846Z,24.44
2017-06-23T07:27:44.071Z,24.44
2017-06-23T07:28:40.314Z,24.44
2017-06-23T07:29:36.558Z,24.43
2017-06-23T07:30:32.862Z,24.41
2017-06-23T07:31:29.114Z,24.42
2017-06-23T07:32:25.338Z,24.42
2017-06-23T07:33:21.581Z,24.42
2017-06-23T07:34:17.798Z,24.43
2017-06-23T07:35:14.021Z,24.42
2017-06-23T07:36:10.269Z,24.42
2017-06-23T07:37:06.502Z,24.44
2017-06-23T07:38:02.729Z,24.44
2017-06-23T07:38:58.970Z,24.46
2017-06-23T07:39:55.205Z,24.47
2017-06-23T07:40:51.445Z,24.48
2017-06-23T07:41:47.698Z,24.47
2017-06-23T07:42:43.985Z,24.45
2017-06-23T07:43:40.210Z,24.44
2017-06-23T07:44:36.583Z,24.45
2017-06-23T07:45:32.882Z,24.45
2017-06-23T07:46:29.111Z,24.46
2017-06-23T07:47:25.362Z,24.48
2017-06-23T07:48:21.593Z,24.50
2017-06-23T07:49:17.830Z,24.52
2017-06-23T07:50:14.082Z,24.54
2017-06-23T07:51:10.322Z,24.57
2017-06-23T07:52:06.578Z,24.59
2017-06-23T07:53:02.814Z,24.62
2017-06-23T07:53:59.042Z,24.64
2017-06-23T07:54:55.277Z,24.66
2017-06-23T07:55:51.502Z,24.70
2017-06-23T07:56:47.733Z,24.70
2017-06-23T07:57:43.974Z,24.74
2017-06-23T07:58:40.204Z,24.76
2017-06-23T07:59:36.442Z,24.78
2017-06-23T08:00:32.662Z,24.83
2017-06-23T08:01:28.906Z,24.85
2017-06-23T08:02:25.146Z,24.89
2017-06-23T08:03:21.385Z,24.94
2017-06-23T08:04:17.626Z,24.97
2017-06-23T08:05:13.854Z,25.02
2017-06-23T08:06:10.094Z,25.06
2017-06-23T08:07:06.323Z,25.08
2017-06-23T08:08:02.573Z,25.10
2017-06-23T08:08:58.822Z,25.12
2017-06-23T08:09:55.053Z,25.14
2017-06-23T08:10:51.286Z,25.16
2017-06-23T08:11:47.514Z,25.18
2017-06-23T08:12:43.742Z,25.18
2017-06-23T08:13:39.966Z,25.19
2017-06-23T08:14:36.230Z,25.21
2017-06-23T08:15:32.458Z,25.22
2017-06-23T08:16:28.694Z,25.22
2017-06-23T08:17:24.932Z,25.23
2017-06-23T08:18:21.154Z,25.25
2017-06-23T08:19:17.393Z,25.24
2017-06-23T08:20:13.638Z,25.25
2017-06-23T08:21:10.031Z,25.27
2017-06-23T08:22:06.262Z,25.29
2017-06-23T08:23:02.507Z,25.28
2017-06-23T08:23:58.746Z,25.30
2017-06-23T08:24:55.010Z,25.31
2017-06-23T08:25:51.234Z,25.32
2017-06-23T08:26:47.476Z,25.32
2017-06-23T08:27:43.719Z,25.31
2017-06-23T08:28:39.962Z,25.32
2017-06-23T08:29:36.206Z,25.32
2017-06-23T08:30:32.458Z,25.33
2017-06-23T08:31:28.690Z,25.34
2017-06-23T08:32:24.919Z,25.34
2017-06-23T08:33:21.150Z,25.37
2017-06-23T08:34:17.374Z,25.38
2017-06-23T08:35:13.636Z,25.38
2017-06-23T08:36:09.866Z,25.40
2017-06-23T08:37:06.102Z,25.39
2017-06-23T08:38:02.337Z,25.39
2017-06-23T08:38:58.574Z,25.40
2017-06-23T08:39:54.794Z,25.40
2017-06-23T08:40:51.037Z,25.41
2017-06-23T08:41:47.274Z,25.41
2017-06-23T08:42:43.506Z,25.43
2017-06-23T08:43:39.746Z,25.44
2017-06-23T08:44:35.966Z,25.46
2017-06-23T08:45:32.242Z,25.47
2017-06-23T08:46:28.475Z,25.48
2017-06-23T08:47:24.699Z,25.51
2017-06-23T08:48:20.942Z,25.53
2017-06-23T08:49:17.177Z,25.55
2017-06-23T08:50:13.398Z,25.55
2017-06-23T08:51:09.642Z,25.59
2017-06-23T08:52:05.874Z,25.57
2017-06-23T08:53:02.102Z,25.59
2017-06-23T08:53:58.334Z,25.60
2017-06-23T08:54:54.586Z,25.64
2017-06-23T08:55:50.813Z,25.66
2017-06-23T08:56:47.064Z,25.69
2017-06-23T08:57:43.293Z,25.71
2017-06-23T08:58:39.522Z,25.75
2017-06-23T08:59:35.750Z,25.78
2017-06-23T09:00:31.974Z,25.79
2017-06-23T09:01:28.211Z,25.81
2017-06-23T09:02:24.438Z,25.84
2017-06-23T09:03:20.676Z,25.86
2017-06-23T09:04:16.901Z,25.88
2017-06-23T09:05:13.139Z,25.91
2017-06-23T09:06:09.361Z,25.95
2017-06-23T09:07:05.625Z,25.96
2017-06-23T09:08:01.856Z,25.98
2017-06-23T09:08:58.089Z,26.00
2017-06-23T09:09:54.314Z,26.00
2017-06-23T09:10:50.547Z,26.01
2017-06-23T09:11:46.790Z,26.00
2017-06-23T09:12:43.034Z,26.00
2017-06-23T09:13:39.261Z,26.01
2017-06-23T09:14:35.494Z,26.04
2017-06-23T09:15:31.726Z,26.12
2017-06-23T09:16:27.958Z,26.15
2017-06-23T09:17:24.219Z,26.20
2017-06-23T09:18:20.450Z,26.25
2017-06-23T09:19:16.686Z,26.29
2017-06-23T09:20:12.918Z,26.31
2017-06-23T09:21:09.154Z,26.33
2017-06-23T09:22:05.383Z,26.36
2017-06-23T09:23:01.627Z,26.39
2017-06-23T09:23:57.930Z,26.40
2017-06-23T09:24:54.168Z,26.41
2017-06-23T09:25:50.391Z,26.43
2017-06-23T09:26:46.625Z,26.42
2017-06-23T09:27:42.886Z,26.43
2017-06-23T09:28:39.214Z,26.47
2017-06-23T09:29:35.446Z,26.53
2017-06-23T09:30:31.678Z,26.60
2017-06-23T09:31:27.967Z,26.69
2017-06-23T09:32:24.466Z,26.78
2017-06-23T09:33:20.726Z,26.87
2017-06-23T09:34:16.966Z,26.98
2017-06-23T09:35:13.199Z,27.11
2017-06-23T09:36:09.430Z,27.23
2017-06-23T09:37:05.658Z,27.35
2017-06-23T09:38:01.895Z,27.45
2017-06-23T09:38:58.146Z,27.52
2017-06-23T09:39:54.365Z,27.57
2017-06-23T09:40:50.766Z,27.61
2017-06-23T09:41:47.006Z,27.69
2017-06-23T09:42:43.234Z,27.79
2017-06-23T09:43:39.466Z,27.90
2017-06-23T09:44:35.718Z,28.01
2017-06-23T09:45:31.957Z,28.12
2017-06-23T09:46:28.202Z,28.20
2017-06-23T09:47:24.445Z,28.27
2017-06-23T09:48:20.789Z,28.31
2017-06-23T09:49:17.023Z,28.33
2017-06-23T09:50:13.269Z,28.36
2017-06-23T09:51:09.489Z,28.38
2017-06-23T09:52:05.718Z,28.38
2017-06-23T09:53:01.961Z,28.40
2017-06-23T09:53:58.186Z,28.41
2017-06-23T09:54:54.515Z,28.39
2017-06-23T09:55:51.157Z,28.37
2017-06-23T09:56:47.389Z,28.34
2017-06-23T09:57:43.812Z,28.31
2017-06-23T09:58:40.275Z,28.29
2017-06-23T09:59:36.506Z,28.27
2017-06-23T10:00:32.750Z,28.26
2017-06-23T10:01:28.988Z,28.27
2017-06-23T10:02:25.215Z,28.28
2017-06-23T10:03:21.449Z,28.32
2017-06-23T10:04:18.107Z,28.34
2017-06-23T10:05:14.986Z,28.37
2017-06-23T10:06:11.214Z,28.38
2017-06-23T10:07:07.486Z,28.40
2017-06-23T10:08:03.722Z,28.40
2017-06-23T10:08:59.954Z,28.40
2017-06-23T10:09:56.179Z,28.37
2017-06-23T10:10:52.419Z,28.35
2017-06-23T10:11:48.646Z,28.32
2017-06-23T10:12:44.878Z,28.30
2017-06-23T10:13:41.102Z,28.24
2017-06-23T10:14:37.330Z,28.21
2017-06-23T10:15:33.591Z,28.16
2017-06-23T10:16:29.834Z,28.10
2017-06-23T10:17:26.078Z,28.08
2017-06-23T10:18:22.374Z,28.03
2017-06-23T10:19:18.609Z,27.99
2017-06-23T10:20:14.848Z,27.93
2017-06-23T10:21:11.159Z,27.89
2017-06-23T10:22:07.394Z,27.84
2017-06-23T10:23:03.632Z,27.80
2017-06-23T10:23:59.864Z,27.73
2017-06-23T10:24:56.107Z,27.69
2017-06-23T10:25:52.418Z,27.65
2017-06-23T10:26:48.721Z,27.64
2017-06-23T10:27:44.985Z,27.64
2017-06-23T10:28:41.249Z,27.64
2017-06-23T10:29:37.475Z,27.68
2017-06-23T10:30:33.705Z,27.69
2017-06-23T10:31:29.926Z,27.70
2017-06-23T10:32:26.178Z,27.67
2017-06-23T10:33:22.401Z,27.65
2017-06-23T10:34:18.681Z,27.62
2017-06-23T10:36:33.953Z,27.60
2017-06-23T10:37:30.206Z,27.65
2017-06-23T10:38:26.454Z,27.68
2017-06-23T10:39:22.697Z,27.73
2017-06-23T10:40:18.930Z,27.80
2017-06-23T10:41:15.170Z,27.86
2017-06-23T10:42:11.422Z,27.93
2017-06-23T10:43:07.658Z,28.04
2017-06-23T10:44:03.878Z,28.14
2017-06-23T10:45:00.090Z,28.23
2017-06-23T10:45:56.318Z,28.32
2017-06-23T10:46:52.545Z,28.41
2017-06-23T10:47:48.803Z,28.49
2017-06-23T10:48:45.046Z,28.54
2017-06-23T10:49:41.270Z,28.58
2017-06-23T10:50:37.505Z,28.62
2017-06-23T10:51:33.726Z,28.66
2017-06-23T10:52:29.967Z,28.67
2017-06-23T10:53:26.238Z,28.66
2017-06-23T10:54:22.487Z,28.61
2017-06-23T10:55:18.726Z,28.55
2017-06-23T10:56:14.967Z,28.50
2017-06-23T10:57:11.194Z,28.49
2017-06-23T10:58:07.414Z,28.46
2017-06-23T10:59:03.650Z,28.45
2017-06-23T10:59:59.886Z,28.46
2017-06-23T11:00:56.105Z,28.49
2017-06-23T11:01:52.322Z,28.49
2017-06-23T11:02:48.537Z,28.48
2017-06-23T11:03:44.777Z,28.49
2017-06-23T11:04:41.010Z,28.49
2017-06-23T11:05:37.230Z,28.47
2017-06-23T11:06:33.454Z,28.46
2017-06-23T11:07:29.683Z,28.46
2017-06-23T11:08:25.964Z,28.45
2017-06-23T11:09:22.206Z,28.45
2017-06-23T11:10:18.441Z,28.44
2017-06-23T11:11:14.732Z,28.47
2017-06-23T11:12:11.023Z,28.50
2017-06-23T11:13:07.607Z,28.53
2017-06-23T11:14:04.422Z,28.56
2017-06-23T11:15:01.106Z,28.59
2017-06-23T11:15:57.326Z,28.60
2017-06-23T11:16:53.542Z,28.63
2017-06-23T11:17:49.831Z,28.63
2017-06-23T11:18:46.386Z,28.64
2017-06-23T11:19:42.647Z,28.63
2017-06-23T11:20:39.489Z,28.63
2017-06-23T11:21:36.438Z,28.64
2017-06-23T11:22:32.662Z,28.68
2017-06-23T11:23:29.478Z,28.74
2017-06-23T11:24:25.717Z,28.79
2017-06-23T11:25:21.961Z,28.85
2017-06-23T11:26:18.943Z,28.92
2017-06-23T11:27:15.190Z,29.02
2017-06-23T11:28:11.411Z,29.09
2017-06-23T11:29:07.945Z,29.17
2017-06-23T11:30:04.409Z,29.27
2017-06-23T11:31:00.670Z,29.37
2017-06-23T11:31:57.249Z,29.47
2017-06-23T11:32:53.473Z,29.56
2017-06-23T11:33:50.156Z,29.66
2017-06-23T11:34:46.739Z,29.75
2017-06-23T11:35:42.978Z,29.83
2017-06-23T11:36:39.447Z,29.90
2017-06-23T11:37:36.334Z,29.97
2017-06-23T11:38:32.714Z,30.03
2017-06-23T11:39:29.138Z,30.09
2017-06-23T11:40:25.369Z,30.14
2017-06-23T11:41:21.631Z,30.20
2017-06-23T11:42:17.854Z,30.21
2017-06-23T11:43:14.098Z,30.25
2017-06-23T11:44:10.333Z,30.30
2017-06-23T11:45:06.550Z,30.30
2017-06-23T11:46:02.787Z,30.31
2017-06-23T11:46:59.038Z,30.32
2017-06-23T11:47:55.257Z,30.35
2017-06-23T11:48:51.482Z,30.38
2017-06-23T11:49:47.702Z,30.43
2017-06-23T11:50:43.934Z,30.46
2017-06-23T11:51:40.150Z,30.48
2017-06-23T11:52:36.388Z,30.49
2017-06-23T11:53:32.625Z,30.49
2017-06-23T11:54:28.870Z,30.51
2017-06-23T11:55:25.101Z,30.52
2017-06-23T11:56:21.330Z,30.55
2017-06-23T11:57:17.559Z,30.57
2017-06-23T11:58:13.798Z,30.60
2017-06-23T11:59:10.019Z,30.63
2017-06-23T12:00:06.254Z,30.68
2017-06-23T12:01:02.478Z,30.75
2017-06-23T12:01:58.710Z,30.82
2017-06-23T12:02:54.974Z,30.90
2017-06-23T12:03:51.206Z,30.94
2017-06-23T12:04:47.550Z,30.98
2017-06-23T12:05:43.969Z,31.00
2017-06-23T12:06:40.198Z,31.03
2017-06-23T12:07:36.417Z,31.06
2017-06-23T12:08:32.658Z,31.08
2017-06-23T12:09:28.878Z,31.10